Flight Track Log - Related Links

Times and Time Zones

All times are in EDT time to prevent confusion due to time zone crossing. See the RPA3228 flight status page for this flight to view local times or setup timezone preferences in your user account.

Time Position Orientation Groundspeed Altitude Reporting Facility
EDT Latitude Longitude Course Direction KTS MPH feet Rate Location/Type
Sat 10:28:21 AM 38.8167 -77.0333 339° North 160 184 2,200  Level Potomac TRACON
Sat 10:29:22 AM 38.7500 -77.0667 201° Southwest 252 290 4,100 2,713 Climbing Potomac TRACON
Sat 10:30:00 AM 39.1235 -77.1436 337° Northwest  Level Estimated
Sat 10:30:16 AM 38.7500 -77.1500 270° West 279 321 7,400  Level Potomac TRACON
Sat 10:31:00 AM 39.2075 -77.1994 333° Northwest  Level FlightAware Approximate
Sat 10:31:16 AM 38.7833 -77.2167 303° West 285 328 10,700  Level Potomac TRACON
Sat 10:32:00 AM 39.2981 -77.2345 333° Northwest  Level Estimated
Sat 10:32:16 AM 38.8500 -77.3000 316° Northwest 308 354 13,000  Level Potomac TRACON
Sat 10:33:00 AM 39.3887 -77.2697 339° North  Level Estimated
Sat 10:34:44 AM 39.0133 -77.4669 322° Northwest 331 381 17,000  Level Washington Center
Sat 10:35:42 AM 39.0919 -77.5117 336° Northwest 299 344 17,600 1,576 Climbing Washington Center
Sat 10:36:42 AM 39.1839 -77.5033 North 304 350 20,100 2,380 Climbing Washington Center
Sat 10:37:43 AM 39.2778 -77.4953 North 315 362 22,400 2,132 Climbing Washington Center
Sat 10:38:43 AM 39.3739 -77.4817 North 327 376 24,400 1,816 Climbing Washington Center
Sat 10:40:15 AM 39.5272 -77.4681 North 342 394 27,000 1,255 Climbing New York Center
Sat 10:41:16 AM 39.6228 -77.4719 358° North 342 394 27,600 500 Climbing New York Center
Sat 10:42:15 AM 39.7189 -77.5053 345° North 348 400 28,000 202 Climbing New York Center
Sat 10:43:15 AM 39.8150 -77.5414 344° North 353 406 28,000  Level New York Center
Sat 10:44:15 AM 39.9111 -77.5753 345° North 353 406 28,000  Level New York Center
Sat 10:45:15 AM 40.0092 -77.6092 345° North 353 406 28,000  Level New York Center
Sat 10:46:15 AM 40.0867 -77.6383 344° North 353 406 28,000  Level New York Center
Sat 10:47:15 AM 40.1950 -77.6764 345° North 353 406 28,000  Level New York Center
Sat 10:48:15 AM 40.2928 -77.7133 344° North 358 412 28,000  Level New York Center
Sat 10:49:15 AM 40.3867 -77.7472 345° North 358 412 28,000  Level New York Center
Sat 10:51:40 AM 40.6219 -77.8367 344° North 365 420 28,000  Level Cleveland Center
Sat 10:52:40 AM 40.7208 -77.8736 344° North 365 420 28,000 -100 Level Cleveland Center
Sat 10:53:40 AM 40.8281 -77.9131 344° North 365 420 27,800 -600 Descending Cleveland Center
Sat 10:54:40 AM 40.9228 -77.9478 345° North 365 420 26,800 -900 Descending Cleveland Center
Sat 10:55:40 AM 41.0194 -77.9822 345° North 365 420 26,000 -400 Descending Cleveland Center
Sat 10:56:40 AM 41.1142 -78.0200 343° North 365 420 26,000  Level Cleveland Center
Sat 10:57:40 AM 41.2108 -78.0547 345° North 365 420 26,000  Level Cleveland Center
Sat 10:58:39 AM 41.3056 -78.0925 343° North 365 420 26,000  Level Cleveland Center
Sat 10:59:40 AM 41.4000 -78.1278 344° North 365 420 26,000  Level Cleveland Center
Sat 11:00:40 AM 41.4967 -78.1656 344° North 365 420 26,000 -850 Level Cleveland Center
Sat 11:01:40 AM 41.5914 -78.2008 344° North 360 414 24,300 -1,664 Descending Cleveland Center
Sat 11:02:39 AM 41.6733 -78.2342 343° North 353 406 22,700 -1,613 Descending Cleveland Center
Sat 11:03:39 AM 41.7594 -78.2672 344° North 336 387 21,100 -1,587 Descending Cleveland Center
Sat 11:04:40 AM 41.8456 -78.3003 344° North 331 381 19,500 -1,550 Descending Cleveland Center
Sat 11:05:39 AM 41.9317 -78.3336 344° North 321 369 18,000 -1,412 Descending Cleveland Center
Sat 11:06:39 AM 42.0158 -78.3669 344° North 321 369 16,700 -1,500 Descending Cleveland Center
Sat 11:07:39 AM 42.0956 -78.3978 344° North 310 357 15,000 -1,800 Descending Cleveland Center
Sat 11:08:39 AM 42.1858 -78.4311 345° North 304 350 13,100 -1,700 Descending Cleveland Center
Sat 11:09:39 AM 42.2656 -78.4619 344° North 304 350 11,600 -1,400 Descending Cleveland Center
Sat 11:10:39 AM 42.3453 -78.4847 348° North 299 344 10,300 -793 Descending Cleveland Center
Sat 11:11:40 AM 42.4264 -78.4819 North 294 338 10,000 -650 Descending Cleveland Center
Sat 11:12:39 AM 42.5097 -78.4792 North 294 338 9,000 -1,160 Descending Cleveland Center
Sat 11:13:39 AM 42.5911 -78.4792 360° North 289 333 7,700 -1,300 Descending Cleveland Center
Sat 11:14:39 AM 42.6706 -78.4908 354° North 289 333 6,400 -1,240 Descending Cleveland Center
Sat 11:15:40 AM 42.7500 -78.5078 351° North 289 333 5,200 -1,150 Descending Cleveland Center
Sat 11:16:39 AM 42.8150 -78.5197 352° North 279 321 4,100 -756 Descending Cleveland Center
Sat 11:17:39 AM 42.8839 -78.5317 353° North 255 293 3,700 -548 Descending Cleveland Center
Sat 11:20:07 AM 42.9833 -78.6333 323° Northwest 138 159 2,200 -564 Descending Buffalo TRACON
Sat 11:21:01 AM 42.9833 -78.6667 270° West 108 124 1,800 -579 Descending Buffalo TRACON
Sat 11:22:01 AM 42.9667 -78.7000 236° Southwest 116 133 1,100 -700 Descending Buffalo TRACON

Login

Don't have an account? Register now (free) for customized features, flight alerts, and more!